首页
METAR-TAF:

METAR-TAF

机场 :

埃德雷米特, 土耳其

纬度: 39-33-16N, 经度: 27-00-49E, 海拔: 15米

当前天气观测

该预报发布于10小时和24分钟前的14:50 UTC
风速10节,风向西
温度 22°C
湿度 50%
气压 1015 hPa
能见度10公里或以上
散云层高于3500英尺

METAR: LTFD 301450Z 26010KT 9999 SCT035 22/11 Q1015

时间: 04:14 (01:14 UTC)

预报

该预报发布于2小时和34分钟前的22:40 UTC
预报有效从31日的 00点(UTC)到 31日的 09点(UTC)
风速5节,风向
能见度10公里或以上
少量云层高于3500英尺

TAF: LTFD 302240Z 3100/3109 08005KT 9999 FEW035

超过4000个机场的气象观测和天气预报(METAR&TAF报告)。

可查询的气象台以黄色和红色小点在地图上表示。

将鼠标移到小点上方,可查看气象台名称。

然后点击查看天气观测和预报。

如需切换地图:点击带黑十字的绿色按钮放大地图;点击带横线的绿色按钮缩小地图;或者点击绿色箭头查看邻近地区的地图。


METAR-TAF: